イエローナイフ の空港の天気 - METARとTAF

イエローナイフ空港 ( CYZF / YZF ) - カナダ ノースウエスト準州イエローナイフ
飛行場実況気象(Metar)
観測時間07/04 20:00 MDT (07/05 02:00 UTC)
風向・風速南南東 4m/s
視程10km以上
天気現象
少しの雲 雲底高度 610m
少しの雲 雲底高度 1520m
少しの雲 雲底高度 7320m
気温20℃
湿度32%
気圧1021.7hPa
METARCYZF 050200Z 15007KT 15SM FEW020 FEW050 FEW240 20/03 A3015 RMK FU2SC1CI1 SC TR CI TR SLP217 DENSITY ALT 1200FT
過去の天気等 Google飛行場航空写真 Wunderground天気予報

過去48時間のMETAR

飛行場予報(TAF)
発表時間: 7/04 17:40 MDT (7/04 23:40 UTC)
予報対象時間: 4日18時 MDT ~ 5日18時 MDT
風向・風速南 4m/s
視程10km以上
少しの雲 雲底高度 610m
全天の4割程度の雲 雲底高度 1520m
5日0時 MDT から
風向・風速東 3m/s
視程10km以上
なし
5日9時 MDT から
風向・風速南東 4m/s
視程10km以上
少しの雲 雲底高度 1520m
TAF CYZF 042340Z 0500/0524 17007KT P6SM FEW020 SCT050
FM050600 09005KT P6SM SKC
FM051500 13008KT P6SM FEW050 RMK NXT FCST BY 050600Z